sensor_id;sensor_type;location;lat;lon;timestamp;temperature;humidity
11599;DHT22;5855;48.840;9.188;2023-03-01T00:01:08;-2.40;99.90
11599;DHT22;5855;48.840;9.188;2023-03-01T00:03:36;-2.50;99.90
11599;DHT22;5855;48.840;9.188;2023-03-01T00:06:03;-2.50;99.90
11599;DHT22;5855;48.840;9.188;2023-03-01T00:08:32;-2.50;99.90
11599;DHT22;5855;48.840;9.188;2023-03-01T00:11:07;-2.50;99.90
11599;DHT22;5855;48.840;9.188;2023-03-01T00:13:34;-2.50;99.90
11599;DHT22;5855;48.840;9.188;2023-03-01T00:16:02;-2.50;99.90
11599;DHT22;5855;48.840;9.188;2023-03-01T00:18:29;-2.50;99.90
11599;DHT22;5855;48.840;9.188;2023-03-01T00:20:56;-2.50;99.90
11599;DHT22;5855;48.840;9.188;2023-03-01T00:23:25;-2.50;99.90
11599;DHT22;5855;48.840;9.188;2023-03-01T00:25:54;-2.50;99.90
11599;DHT22;5855;48.840;9.188;2023-03-01T00:28:21;-2.40;99.90
11599;DHT22;5855;48.840;9.188;2023-03-01T00:30:48;-2.30;99.90
11599;DHT22;5855;48.840;9.188;2023-03-01T00:33:14;-2.30;99.90
11599;DHT22;5855;48.840;9.188;2023-03-01T00:35:41;-2.30;99.90
11599;DHT22;5855;48.840;9.188;2023-03-01T00:38:08;-2.30;99.90
11599;DHT22;5855;48.840;9.188;2023-03-01T00:40:36;-2.30;99.90
11599;DHT22;5855;48.840;9.188;2023-03-01T00:43:04;-2.40;99.90
11599;DHT22;5855;48.840;9.188;2023-03-01T00:45:32;-2.40;99.90
11599;DHT22;5855;48.840;9.188;2023-03-01T00:47:59;-2.40;99.90
11599;DHT22;5855;48.840;9.188;2023-03-01T00:50:26;-2.30;99.90
11599;DHT22;5855;48.840;9.188;2023-03-01T00:52:53;-2.30;99.90
11599;DHT22;5855;48.840;9.188;2023-03-01T00:55:20;-2.30;99.90
11599;DHT22;5855;48.840;9.188;2023-03-01T00:57:48;-2.30;99.90
11599;DHT22;5855;48.840;9.188;2023-03-01T01:00:17;-2.30;99.90
11599;DHT22;5855;48.840;9.188;2023-03-01T01:02:45;-2.20;99.90
11599;DHT22;5855;48.840;9.188;2023-03-01T01:05:13;-2.10;99.90
11599;DHT22;5855;48.840;9.188;2023-03-01T01:07:40;-2.10;99.90
11599;DHT22;5855;48.840;9.188;2023-03-01T01:10:07;-2.10;99.90
11599;DHT22;5855;48.840;9.188;2023-03-01T01:12:38;-2.10;99.90
11599;DHT22;5855;48.840;9.188;2023-03-01T01:15:06;-2.10;99.90
11599;DHT22;5855;48.840;9.188;2023-03-01T01:17:34;-2.20;99.90
11599;DHT22;5855;48.840;9.188;2023-03-01T01:20:01;-2.30;99.90
11599;DHT22;5855;48.840;9.188;2023-03-01T01:22:28;-2.30;99.90
11599;DHT22;5855;48.840;9.188;2023-03-01T01:24:55;-2.30;99.90
11599;DHT22;5855;48.840;9.188;2023-03-01T01:27:21;-2.30;99.90
11599;DHT22;5855;48.840;9.188;2023-03-01T01:29:48;-2.30;99.90
11599;DHT22;5855;48.840;9.188;2023-03-01T01:32:15;-2.30;99.90
11599;DHT22;5855;48.840;9.188;2023-03-01T01:34:44;-2.20;99.90
11599;DHT22;5855;48.840;9.188;2023-03-01T01:37:12;-2.30;99.90
11599;DHT22;5855;48.840;9.188;2023-03-01T01:39:38;-2.40;99.90
11599;DHT22;5855;48.840;9.188;2023-03-01T01:42:05;-2.40;99.90
11599;DHT22;5855;48.840;9.188;2023-03-01T01:44:33;-2.50;99.90
11599;DHT22;5855;48.840;9.188;2023-03-01T01:47:02;-2.50;99.90
11599;DHT22;5855;48.840;9.188;2023-03-01T01:49:35;-2.60;99.90
11599;DHT22;5855;48.840;9.188;2023-03-01T01:52:10;-2.70;99.90
11599;DHT22;5855;48.840;9.188;2023-03-01T01:54:43;-2.70;99.90
11599;DHT22;5855;48.840;9.188;2023-03-01T01:57:14;-2.70;99.90
11599;DHT22;5855;48.840;9.188;2023-03-01T01:59:46;-2.70;99.90
11599;DHT22;5855;48.840;9.188;2023-03-01T02:02:15;-2.60;99.90
11599;DHT22;5855;48.840;9.188;2023-03-01T02:04:43;-2.60;99.90
11599;DHT22;5855;48.840;9.188;2023-03-01T02:07:14;-2.50;99.90
11599;DHT22;5855;48.840;9.188;2023-03-01T02:09:45;-2.40;99.90
11599;DHT22;5855;48.840;9.188;2023-03-01T02:12:13;-2.30;99.90
11599;DHT22;5855;48.840;9.188;2023-03-01T02:14:40;-2.30;99.90
11599;DHT22;5855;48.840;9.188;2023-03-01T02:17:07;-2.20;99.90
11599;DHT22;5855;48.840;9.188;2023-03-01T02:19:45;-2.10;99.90
11599;DHT22;5855;48.840;9.188;2023-03-01T02:22:20;-2.10;99.90
11599;DHT22;5855;48.840;9.188;2023-03-01T02:24:55;-2.10;99.90
11599;DHT22;5855;48.840;9.188;2023-03-01T02:27:32;-2.00;99.90
11599;DHT22;5855;48.840;9.188;2023-03-01T02:30:01;-1.90;99.90
11599;DHT22;5855;48.840;9.188;2023-03-01T02:32:28;-1.80;99.90
11599;DHT22;5855;48.840;9.188;2023-03-01T02:34:54;-1.60;99.90
11599;DHT22;5855;48.840;9.188;2023-03-01T02:37:22;-1.60;99.90
11599;DHT22;5855;48.840;9.188;2023-03-01T02:39:55;-1.60;99.90
11599;DHT22;5855;48.840;9.188;2023-03-01T02:42:26;-1.60;99.90
11599;DHT22;5855;48.840;9.188;2023-03-01T02:44:55;-1.50;99.90
11599;DHT22;5855;48.840;9.188;2023-03-01T02:47:23;-1.50;99.90
11599;DHT22;5855;48.840;9.188;2023-03-01T02:49:50;-1.40;99.90
11599;DHT22;5855;48.840;9.188;2023-03-01T02:55:11;-1.30;99.90
11599;DHT22;5855;48.840;9.188;2023-03-01T02:57:41;-1.30;99.90
11599;DHT22;5855;48.840;9.188;2023-03-01T03:00:11;-1.20;99.90
11599;DHT22;5855;48.840;9.188;2023-03-01T03:02:46;-1.10;99.90
11599;DHT22;5855;48.840;9.188;2023-03-01T03:05:15;-1.10;99.90
11599;DHT22;5855;48.840;9.188;2023-03-01T03:07:44;-1.10;99.90
11599;DHT22;5855;48.840;9.188;2023-03-01T03:10:13;-1.00;99.90
11599;DHT22;5855;48.840;9.188;2023-03-01T03:12:41;-1.00;99.90
11599;DHT22;5855;48.840;9.188;2023-03-01T03:15:10;-1.00;99.90
11599;DHT22;5855;48.840;9.188;2023-03-01T03:17:39;-0.90;99.90
11599;DHT22;5855;48.840;9.188;2023-03-01T03:20:10;-0.80;99.90
11599;DHT22;5855;48.840;9.188;2023-03-01T03:22:37;-0.80;99.90
11599;DHT22;5855;48.840;9.188;2023-03-01T03:25:05;-0.70;99.90
11599;DHT22;5855;48.840;9.188;2023-03-01T03:27:36;-0.70;99.90
11599;DHT22;5855;48.840;9.188;2023-03-01T03:30:04;-0.60;99.90
11599;DHT22;5855;48.840;9.188;2023-03-01T03:32:34;-0.60;99.90
11599;DHT22;5855;48.840;9.188;2023-03-01T03:35:02;-0.50;99.90
11599;DHT22;5855;48.840;9.188;2023-03-01T03:37:35;-0.50;99.90
11599;DHT22;5855;48.840;9.188;2023-03-01T03:40:19;-0.50;99.90
11599;DHT22;5855;48.840;9.188;2023-03-01T03:42:46;-0.40;99.90
11599;DHT22;5855;48.840;9.188;2023-03-01T03:45:16;-0.40;99.90
11599;DHT22;5855;48.840;9.188;2023-03-01T03:47:43;-0.40;99.90
11599;DHT22;5855;48.840;9.188;2023-03-01T03:50:11;-0.40;99.90
11599;DHT22;5855;48.840;9.188;2023-03-01T03:52:42;-0.40;99.90
11599;DHT22;5855;48.840;9.188;2023-03-01T03:55:11;-0.40;99.90
11599;DHT22;5855;48.840;9.188;2023-03-01T03:57:39;-0.30;99.90
11599;DHT22;5855;48.840;9.188;2023-03-01T04:00:08;-0.30;99.90
11599;DHT22;5855;48.840;9.188;2023-03-01T04:02:38;-0.30;99.90
11599;DHT22;5855;48.840;9.188;2023-03-01T04:05:06;-0.20;99.90
11599;DHT22;5855;48.840;9.188;2023-03-01T04:07:34;-0.20;99.90
11599;DHT22;5855;48.840;9.188;2023-03-01T04:10:02;-0.20;99.90
11599;DHT22;5855;48.840;9.188;2023-03-01T04:12:29;-0.10;99.90
11599;DHT22;5855;48.840;9.188;2023-03-01T04:14:56;-0.10;99.90
11599;DHT22;5855;48.840;9.188;2023-03-01T04:17:23;-0.10;99.90
11599;DHT22;5855;48.840;9.188;2023-03-01T04:19:50;0.00;99.90
11599;DHT22;5855;48.840;9.188;2023-03-01T04:22:17;0.00;99.90
11599;DHT22;5855;48.840;9.188;2023-03-01T04:24:44;-0.10;99.90
11599;DHT22;5855;48.840;9.188;2023-03-01T04:27:12;-0.10;99.90
11599;DHT22;5855;48.840;9.188;2023-03-01T04:29:39;-0.10;99.90
11599;DHT22;5855;48.840;9.188;2023-03-01T04:32:06;-0.10;99.90
11599;DHT22;5855;48.840;9.188;2023-03-01T04:34:33;0.00;99.90
11599;DHT22;5855;48.840;9.188;2023-03-01T04:37:00;0.00;99.90
11599;DHT22;5855;48.840;9.188;2023-03-01T04:39:27;0.00;99.90
11599;DHT22;5855;48.840;9.188;2023-03-01T04:41:54;0.00;99.90
11599;DHT22;5855;48.840;9.188;2023-03-01T04:44:22;0.00;99.90
11599;DHT22;5855;48.840;9.188;2023-03-01T04:46:49;0.10;99.90
11599;DHT22;5855;48.840;9.188;2023-03-01T04:49:16;0.10;99.90
11599;DHT22;5855;48.840;9.188;2023-03-01T04:51:43;0.10;99.90
11599;DHT22;5855;48.840;9.188;2023-03-01T04:54:09;0.00;99.90
11599;DHT22;5855;48.840;9.188;2023-03-01T04:56:36;0.10;99.90
11599;DHT22;5855;48.840;9.188;2023-03-01T04:59:03;0.00;99.90
11599;DHT22;5855;48.840;9.188;2023-03-01T05:01:32;0.00;99.90
11599;DHT22;5855;48.840;9.188;2023-03-01T05:04:00;0.00;99.90
11599;DHT22;5855;48.840;9.188;2023-03-01T05:06:31;0.00;99.90
11599;DHT22;5855;48.840;9.188;2023-03-01T05:08:58;0.00;99.90
11599;DHT22;5855;48.840;9.188;2023-03-01T05:11:25;0.00;99.90
11599;DHT22;5855;48.840;9.188;2023-03-01T05:13:53;0.00;99.90
11599;DHT22;5855;48.840;9.188;2023-03-01T05:16:20;0.00;99.90
11599;DHT22;5855;48.840;9.188;2023-03-01T05:18:49;0.10;99.90
11599;DHT22;5855;48.840;9.188;2023-03-01T05:21:17;0.10;99.90
11599;DHT22;5855;48.840;9.188;2023-03-01T05:23:44;0.10;99.90
11599;DHT22;5855;48.840;9.188;2023-03-01T05:26:12;0.10;99.90
11599;DHT22;5855;48.840;9.188;2023-03-01T05:28:39;0.00;99.90
11599;DHT22;5855;48.840;9.188;2023-03-01T05:31:06;0.00;99.90
11599;DHT22;5855;48.840;9.188;2023-03-01T05:33:35;0.00;99.90
11599;DHT22;5855;48.840;9.188;2023-03-01T05:36:04;0.00;99.90
11599;DHT22;5855;48.840;9.188;2023-03-01T05:38:31;0.00;99.90
11599;DHT22;5855;48.840;9.188;2023-03-01T05:40:59;0.00;99.90
11599;DHT22;5855;48.840;9.188;2023-03-01T05:43:26;0.00;99.90
11599;DHT22;5855;48.840;9.188;2023-03-01T05:45:57;0.00;99.90
11599;DHT22;5855;48.840;9.188;2023-03-01T05:48:25;0.10;99.90
11599;DHT22;5855;48.840;9.188;2023-03-01T05:50:52;0.10;99.90
11599;DHT22;5855;48.840;9.188;2023-03-01T05:53:20;0.10;99.90
11599;DHT22;5855;48.840;9.188;2023-03-01T05:55:47;0.10;99.90
11599;DHT22;5855;48.840;9.188;2023-03-01T05:58:17;0.10;99.90
11599;DHT22;5855;48.840;9.188;2023-03-01T06:00:45;0.10;99.90
11599;DHT22;5855;48.840;9.188;2023-03-01T06:03:14;0.10;99.90
11599;DHT22;5855;48.840;9.188;2023-03-01T06:05:42;0.10;99.90
11599;DHT22;5855;48.840;9.188;2023-03-01T06:08:10;0.10;99.90
11599;DHT22;5855;48.840;9.188;2023-03-01T06:10:38;0.10;99.90
11599;DHT22;5855;48.840;9.188;2023-03-01T06:13:06;0.10;99.90
11599;DHT22;5855;48.840;9.188;2023-03-01T06:15:32;0.10;99.90
11599;DHT22;5855;48.840;9.188;2023-03-01T06:17:59;0.10;99.90
11599;DHT22;5855;48.840;9.188;2023-03-01T06:20:27;0.10;99.90
11599;DHT22;5855;48.840;9.188;2023-03-01T06:22:54;0.20;99.90
11599;DHT22;5855;48.840;9.188;2023-03-01T06:25:23;0.20;99.90
11599;DHT22;5855;48.840;9.188;2023-03-01T06:27:51;0.20;99.90
11599;DHT22;5855;48.840;9.188;2023-03-01T06:30:20;0.20;99.90
11599;DHT22;5855;48.840;9.188;2023-03-01T06:32:48;0.20;99.90
11599;DHT22;5855;48.840;9.188;2023-03-01T06:35:16;0.20;99.90
11599;DHT22;5855;48.840;9.188;2023-03-01T06:37:43;0.20;99.90
11599;DHT22;5855;48.840;9.188;2023-03-01T06:40:11;0.10;99.90
11599;DHT22;5855;48.840;9.188;2023-03-01T06:42:40;0.20;99.90
11599;DHT22;5855;48.840;9.188;2023-03-01T06:45:10;0.20;99.90
11599;DHT22;5855;48.840;9.188;2023-03-01T06:47:37;0.20;99.90
11599;DHT22;5855;48.840;9.188;2023-03-01T06:50:04;0.30;99.90
11599;DHT22;5855;48.840;9.188;2023-03-01T06:52:31;0.30;99.90
11599;DHT22;5855;48.840;9.188;2023-03-01T06:54:58;0.40;99.90
11599;DHT22;5855;48.840;9.188;2023-03-01T06:57:25;0.50;99.90
11599;DHT22;5855;48.840;9.188;2023-03-01T06:59:52;0.50;99.90
11599;DHT22;5855;48.840;9.188;2023-03-01T07:02:20;0.60;99.90
11599;DHT22;5855;48.840;9.188;2023-03-01T07:04:48;0.60;99.90
11599;DHT22;5855;48.840;9.188;2023-03-01T07:07:16;0.60;99.90
11599;DHT22;5855;48.840;9.188;2023-03-01T07:09:43;0.60;99.90
11599;DHT22;5855;48.840;9.188;2023-03-01T07:12:10;0.60;99.90
11599;DHT22;5855;48.840;9.188;2023-03-01T07:14:37;0.50;99.90
11599;DHT22;5855;48.840;9.188;2023-03-01T07:17:04;0.50;99.90
11599;DHT22;5855;48.840;9.188;2023-03-01T07:19:32;0.50;99.90
11599;DHT22;5855;48.840;9.188;2023-03-01T07:21:59;0.50;99.90
11599;DHT22;5855;48.840;9.188;2023-03-01T07:24:26;0.40;99.90
11599;DHT22;5855;48.840;9.188;2023-03-01T07:26:53;0.50;99.90
11599;DHT22;5855;48.840;9.188;2023-03-01T07:29:20;0.60;99.90
11599;DHT22;5855;48.840;9.188;2023-03-01T07:31:46;0.60;99.90
11599;DHT22;5855;48.840;9.188;2023-03-01T07:34:13;0.80;99.90
11599;DHT22;5855;48.840;9.188;2023-03-01T07:36:41;0.80;99.90
11599;DHT22;5855;48.840;9.188;2023-03-01T07:39:09;0.90;99.90
11599;DHT22;5855;48.840;9.188;2023-03-01T07:41:36;1.00;99.90
11599;DHT22;5855;48.840;9.188;2023-03-01T07:44:03;1.10;99.90
11599;DHT22;5855;48.840;9.188;2023-03-01T07:46:30;1.20;99.90
11599;DHT22;5855;48.840;9.188;2023-03-01T07:48:57;1.30;99.90
11599;DHT22;5855;48.840;9.188;2023-03-01T07:51:24;1.30;99.90
11599;DHT22;5855;48.840;9.188;2023-03-01T07:53:52;1.50;99.90
11599;DHT22;5855;48.840;9.188;2023-03-01T07:56:19;1.50;99.90
11599;DHT22;5855;48.840;9.188;2023-03-01T07:58:47;1.60;99.90
11599;DHT22;5855;48.840;9.188;2023-03-01T08:01:17;1.60;99.90
11599;DHT22;5855;48.840;9.188;2023-03-01T08:03:45;1.80;99.90
11599;DHT22;5855;48.840;9.188;2023-03-01T08:06:13;1.80;99.90
11599;DHT22;5855;48.840;9.188;2023-03-01T08:08:40;2.00;99.90
11599;DHT22;5855;48.840;9.188;2023-03-01T08:11:11;2.10;99.90
11599;DHT22;5855;48.840;9.188;2023-03-01T08:13:38;2.20;99.90
11599;DHT22;5855;48.840;9.188;2023-03-01T08:16:07;2.30;99.90
11599;DHT22;5855;48.840;9.188;2023-03-01T08:18:34;2.40;99.90
11599;DHT22;5855;48.840;9.188;2023-03-01T08:21:02;2.50;99.90
11599;DHT22;5855;48.840;9.188;2023-03-01T08:23:29;2.60;99.90
11599;DHT22;5855;48.840;9.188;2023-03-01T08:26:03;2.80;99.90
11599;DHT22;5855;48.840;9.188;2023-03-01T08:28:33;2.90;99.90
11599;DHT22;5855;48.840;9.188;2023-03-01T08:31:00;3.10;99.90
11599;DHT22;5855;48.840;9.188;2023-03-01T08:33:27;3.30;99.90
11599;DHT22;5855;48.840;9.188;2023-03-01T08:36:02;3.20;99.90
11599;DHT22;5855;48.840;9.188;2023-03-01T08:38:29;3.30;99.90
11599;DHT22;5855;48.840;9.188;2023-03-01T08:40:59;3.40;99.90
11599;DHT22;5855;48.840;9.188;2023-03-01T08:43:26;3.50;99.90
11599;DHT22;5855;48.840;9.188;2023-03-01T08:45:54;3.70;99.90
11599;DHT22;5855;48.840;9.188;2023-03-01T08:48:21;3.90;99.90
11599;DHT22;5855;48.840;9.188;2023-03-01T08:50:48;4.10;99.90
11599;DHT22;5855;48.840;9.188;2023-03-01T08:53:15;4.20;99.90
11599;DHT22;5855;48.840;9.188;2023-03-01T08:55:42;4.20;99.90
11599;DHT22;5855;48.840;9.188;2023-03-01T08:58:08;4.40;99.90
11599;DHT22;5855;48.840;9.188;2023-03-01T09:00:35;4.50;99.90
11599;DHT22;5855;48.840;9.188;2023-03-01T09:03:03;4.70;99.90
11599;DHT22;5855;48.840;9.188;2023-03-01T09:05:31;4.80;99.90
11599;DHT22;5855;48.840;9.188;2023-03-01T09:07:58;5.00;99.90
11599;DHT22;5855;48.840;9.188;2023-03-01T09:10:25;5.20;99.90
11599;DHT22;5855;48.840;9.188;2023-03-01T09:12:52;5.30;99.90
11599;DHT22;5855;48.840;9.188;2023-03-01T09:15:19;5.40;99.90
11599;DHT22;5855;48.840;9.188;2023-03-01T09:17:46;5.50;99.90
11599;DHT22;5855;48.840;9.188;2023-03-01T09:20:14;5.60;99.90
11599;DHT22;5855;48.840;9.188;2023-03-01T09:22:41;5.80;99.90
11599;DHT22;5855;48.840;9.188;2023-03-01T09:25:08;6.00;99.90
11599;DHT22;5855;48.840;9.188;2023-03-01T09:27:35;6.20;99.90
11599;DHT22;5855;48.840;9.188;2023-03-01T09:30:02;6.40;99.90
11599;DHT22;5855;48.840;9.188;2023-03-01T09:32:30;6.50;99.90
11599;DHT22;5855;48.840;9.188;2023-03-01T09:34:57;6.70;99.90
11599;DHT22;5855;48.840;9.188;2023-03-01T09:37:35;6.80;99.80
11599;DHT22;5855;48.840;9.188;2023-03-01T09:40:03;6.90;99.60
11599;DHT22;5855;48.840;9.188;2023-03-01T09:42:33;7.10;99.50
11599;DHT22;5855;48.840;9.188;2023-03-01T09:45:03;7.10;98.70
11599;DHT22;5855;48.840;9.188;2023-03-01T09:47:33;7.30;98.60
11599;DHT22;5855;48.840;9.188;2023-03-01T09:50:04;7.50;98.30
11599;DHT22;5855;48.840;9.188;2023-03-01T09:52:39;7.70;97.80
11599;DHT22;5855;48.840;9.188;2023-03-01T09:55:10;7.80;97.00
11599;DHT22;5855;48.840;9.188;2023-03-01T09:57:43;8.00;96.90
11599;DHT22;5855;48.840;9.188;2023-03-01T10:00:24;8.30;96.30
11599;DHT22;5855;48.840;9.188;2023-03-01T10:02:57;8.50;96.10
11599;DHT22;5855;48.840;9.188;2023-03-01T10:05:34;8.80;95.40
11599;DHT22;5855;48.840;9.188;2023-03-01T10:08:28;9.20;94.80
11599;DHT22;5855;48.840;9.188;2023-03-01T10:10:57;9.50;93.80
11599;DHT22;5855;48.840;9.188;2023-03-01T10:13:28;9.70;92.90
11599;DHT22;5855;48.840;9.188;2023-03-01T10:15:59;9.90;93.00
11599;DHT22;5855;48.840;9.188;2023-03-01T10:18:30;10.10;91.60
11599;DHT22;5855;48.840;9.188;2023-03-01T10:21:00;10.30;90.90
11599;DHT22;5855;48.840;9.188;2023-03-01T10:23:31;10.50;90.20
11599;DHT22;5855;48.840;9.188;2023-03-01T10:26:08;10.60;90.20
11599;DHT22;5855;48.840;9.188;2023-03-01T10:28:45;10.70;89.10
11599;DHT22;5855;48.840;9.188;2023-03-01T10:31:14;10.90;88.10
11599;DHT22;5855;48.840;9.188;2023-03-01T10:33:43;11.30;87.30
11599;DHT22;5855;48.840;9.188;2023-03-01T10:36:10;11.60;84.90
11599;DHT22;5855;48.840;9.188;2023-03-01T10:38:50;11.70;83.40
11599;DHT22;5855;48.840;9.188;2023-03-01T10:41:20;12.00;81.50
11599;DHT22;5855;48.840;9.188;2023-03-01T10:43:51;12.20;80.60
11599;DHT22;5855;48.840;9.188;2023-03-01T10:46:24;12.60;78.70
11599;DHT22;5855;48.840;9.188;2023-03-01T10:49:07;12.90;75.80
11599;DHT22;5855;48.840;9.188;2023-03-01T10:51:40;13.30;74.10
11599;DHT22;5855;48.840;9.188;2023-03-01T10:54:18;13.60;72.00
11599;DHT22;5855;48.840;9.188;2023-03-01T10:56:50;14.10;68.50
11599;DHT22;5855;48.840;9.188;2023-03-01T10:59:26;14.20;66.50
11599;DHT22;5855;48.840;9.188;2023-03-01T11:02:18;14.70;65.00
11599;DHT22;5855;48.840;9.188;2023-03-01T11:04:57;15.00;62.50
11599;DHT22;5855;48.840;9.188;2023-03-01T11:07:25;15.10;61.00
11599;DHT22;5855;48.840;9.188;2023-03-01T11:09:53;15.90;58.30
11599;DHT22;5855;48.840;9.188;2023-03-01T11:12:20;17.40;54.80
11599;DHT22;5855;48.840;9.188;2023-03-01T11:14:49;18.70;50.20
11599;DHT22;5855;48.840;9.188;2023-03-01T11:17:21;19.70;45.30
11599;DHT22;5855;48.840;9.188;2023-03-01T11:20:00;20.50;41.00
11599;DHT22;5855;48.840;9.188;2023-03-01T11:22:30;21.40;37.70
11599;DHT22;5855;48.840;9.188;2023-03-01T11:25:01;21.90;35.20
11599;DHT22;5855;48.840;9.188;2023-03-01T11:27:32;22.40;32.40
11599;DHT22;5855;48.840;9.188;2023-03-01T11:30:02;22.90;30.50
11599;DHT22;5855;48.840;9.188;2023-03-01T11:32:34;22.80;29.50
11599;DHT22;5855;48.840;9.188;2023-03-01T11:35:08;23.70;28.80
11599;DHT22;5855;48.840;9.188;2023-03-01T11:37:41;23.80;27.30
11599;DHT22;5855;48.840;9.188;2023-03-01T11:40:15;24.00;26.70
11599;DHT22;5855;48.840;9.188;2023-03-01T11:43:02;24.20;26.50
11599;DHT22;5855;48.840;9.188;2023-03-01T11:45:43;24.80;25.40
11599;DHT22;5855;48.840;9.188;2023-03-01T11:48:31;25.40;24.30
11599;DHT22;5855;48.840;9.188;2023-03-01T11:51:07;25.80;23.90
11599;DHT22;5855;48.840;9.188;2023-03-01T11:53:50;26.20;22.90
11599;DHT22;5855;48.840;9.188;2023-03-01T11:56:28;26.40;22.30
11599;DHT22;5855;48.840;9.188;2023-03-01T11:59:06;27.10;21.40
11599;DHT22;5855;48.840;9.188;2023-03-01T12:01:48;27.90;20.40
11599;DHT22;5855;48.840;9.188;2023-03-01T12:04:47;27.90;19.90
11599;DHT22;5855;48.840;9.188;2023-03-01T12:07:24;28.70;19.50
11599;DHT22;5855;48.840;9.188;2023-03-01T12:10:07;28.80;18.90
11599;DHT22;5855;48.840;9.188;2023-03-01T12:13:01;28.70;18.20
11599;DHT22;5855;48.840;9.188;2023-03-01T12:15:42;28.90;17.70
11599;DHT22;5855;48.840;9.188;2023-03-01T12:21:21;29.20;16.90
11599;DHT22;5855;48.840;9.188;2023-03-01T12:24:04;30.20;16.50
11599;DHT22;5855;48.840;9.188;2023-03-01T12:26:37;30.20;16.10
11599;DHT22;5855;48.840;9.188;2023-03-01T12:29:24;30.60;15.60
11599;DHT22;5855;48.840;9.188;2023-03-01T12:32:07;30.60;15.20
11599;DHT22;5855;48.840;9.188;2023-03-01T12:35:10;31.60;14.60
11599;DHT22;5855;48.840;9.188;2023-03-01T12:37:47;31.00;14.40
11599;DHT22;5855;48.840;9.188;2023-03-01T12:40:32;31.20;13.90
11599;DHT22;5855;48.840;9.188;2023-03-01T12:43:11;31.00;13.50
11599;DHT22;5855;48.840;9.188;2023-03-01T12:45:51;30.80;13.90
11599;DHT22;5855;48.840;9.188;2023-03-01T12:48:31;31.50;13.50
11599;DHT22;5855;48.840;9.188;2023-03-01T12:51:03;31.80;13.30
11599;DHT22;5855;48.840;9.188;2023-03-01T12:53:35;31.80;12.90
11599;DHT22;5855;48.840;9.188;2023-03-01T12:56:06;32.20;13.00
11599;DHT22;5855;48.840;9.188;2023-03-01T12:58:40;32.60;12.40
11599;DHT22;5855;48.840;9.188;2023-03-01T13:01:21;33.00;12.10
11599;DHT22;5855;48.840;9.188;2023-03-01T13:06:44;33.00;11.80
11599;DHT22;5855;48.840;9.188;2023-03-01T13:09:19;33.30;11.70
11599;DHT22;5855;48.840;9.188;2023-03-01T13:11:50;33.30;10.90
11599;DHT22;5855;48.840;9.188;2023-03-01T13:14:45;33.30;11.60
11599;DHT22;5855;48.840;9.188;2023-03-01T13:17:44;33.40;10.80
11599;DHT22;5855;48.840;9.188;2023-03-01T13:20:14;33.80;10.60
11599;DHT22;5855;48.840;9.188;2023-03-01T13:22:41;33.60;10.50
11599;DHT22;5855;48.840;9.188;2023-03-01T13:25:14;33.20;10.50
11599;DHT22;5855;48.840;9.188;2023-03-01T13:27:41;33.60;10.50
11599;DHT22;5855;48.840;9.188;2023-03-01T13:30:39;33.80;10.20
11599;DHT22;5855;48.840;9.188;2023-03-01T13:33:45;33.80;10.10
11599;DHT22;5855;48.840;9.188;2023-03-01T13:36:48;34.60;9.90
11599;DHT22;5855;48.840;9.188;2023-03-01T13:39:31;34.70;9.50
11599;DHT22;5855;48.840;9.188;2023-03-01T13:42:36;34.90;9.60
11599;DHT22;5855;48.840;9.188;2023-03-01T13:45:14;34.20;9.40
11599;DHT22;5855;48.840;9.188;2023-03-01T13:47:43;34.20;9.40
11599;DHT22;5855;48.840;9.188;2023-03-01T13:50:19;35.50;9.00
11599;DHT22;5855;48.840;9.188;2023-03-01T13:52:50;35.00;8.90
11599;DHT22;5855;48.840;9.188;2023-03-01T13:55:24;35.70;9.00
11599;DHT22;5855;48.840;9.188;2023-03-01T13:57:56;36.10;8.60
11599;DHT22;5855;48.840;9.188;2023-03-01T14:00:36;35.70;8.40
11599;DHT22;5855;48.840;9.188;2023-03-01T14:03:13;35.30;8.50
11599;DHT22;5855;48.840;9.188;2023-03-01T14:05:42;35.10;8.40
11599;DHT22;5855;48.840;9.188;2023-03-01T14:08:22;34.40;8.70
11599;DHT22;5855;48.840;9.188;2023-03-01T14:11:21;33.70;9.10
11599;DHT22;5855;48.840;9.188;2023-03-01T14:14:14;33.60;9.00
11599;DHT22;5855;48.840;9.188;2023-03-01T14:16:49;33.40;9.10
11599;DHT22;5855;48.840;9.188;2023-03-01T14:19:22;33.80;8.90
11599;DHT22;5855;48.840;9.188;2023-03-01T14:21:59;34.30;8.90
11599;DHT22;5855;48.840;9.188;2023-03-01T14:24:30;34.80;8.60
11599;DHT22;5855;48.840;9.188;2023-03-01T14:27:00;34.50;8.50
11599;DHT22;5855;48.840;9.188;2023-03-01T14:29:33;33.70;9.00
11599;DHT22;5855;48.840;9.188;2023-03-01T14:32:09;34.50;8.70
11599;DHT22;5855;48.840;9.188;2023-03-01T14:34:36;34.00;8.90
11599;DHT22;5855;48.840;9.188;2023-03-01T14:37:19;34.40;8.70
11599;DHT22;5855;48.840;9.188;2023-03-01T14:39:48;33.90;8.70
11599;DHT22;5855;48.840;9.188;2023-03-01T14:42:15;33.20;9.30
11599;DHT22;5855;48.840;9.188;2023-03-01T14:44:43;33.10;9.30
11599;DHT22;5855;48.840;9.188;2023-03-01T14:47:12;33.20;9.20
11599;DHT22;5855;48.840;9.188;2023-03-01T14:49:42;33.00;9.10
11599;DHT22;5855;48.840;9.188;2023-03-01T14:52:18;32.50;9.40
11599;DHT22;5855;48.840;9.188;2023-03-01T14:54:49;32.20;9.50
11599;DHT22;5855;48.840;9.188;2023-03-01T14:57:20;31.90;9.90
11599;DHT22;5855;48.840;9.188;2023-03-01T14:59:48;31.80;10.00
11599;DHT22;5855;48.840;9.188;2023-03-01T15:02:19;31.20;10.20
11599;DHT22;5855;48.840;9.188;2023-03-01T15:04:49;30.70;10.80
11599;DHT22;5855;48.840;9.188;2023-03-01T15:07:16;30.10;10.60
11599;DHT22;5855;48.840;9.188;2023-03-01T15:09:44;29.20;11.10
11599;DHT22;5855;48.840;9.188;2023-03-01T15:12:37;29.00;11.40
11599;DHT22;5855;48.840;9.188;2023-03-01T15:15:26;29.40;11.20
11599;DHT22;5855;48.840;9.188;2023-03-01T15:17:58;29.00;11.50
11599;DHT22;5855;48.840;9.188;2023-03-01T15:20:27;28.50;12.10
11599;DHT22;5855;48.840;9.188;2023-03-01T15:22:55;28.20;12.10
11599;DHT22;5855;48.840;9.188;2023-03-01T15:25:26;27.30;12.60
11599;DHT22;5855;48.840;9.188;2023-03-01T15:27:56;28.10;12.50
11599;DHT22;5855;48.840;9.188;2023-03-01T15:30:26;28.00;12.40
11599;DHT22;5855;48.840;9.188;2023-03-01T15:33:16;26.90;13.00
11599;DHT22;5855;48.840;9.188;2023-03-01T15:35:46;26.50;13.40
11599;DHT22;5855;48.840;9.188;2023-03-01T15:38:33;26.70;13.50
11599;DHT22;5855;48.840;9.188;2023-03-01T15:41:02;26.30;13.50
11599;DHT22;5855;48.840;9.188;2023-03-01T15:43:44;25.70;13.70
11599;DHT22;5855;48.840;9.188;2023-03-01T15:46:27;25.90;13.90
11599;DHT22;5855;48.840;9.188;2023-03-01T15:48:56;25.70;13.90
11599;DHT22;5855;48.840;9.188;2023-03-01T15:51:30;25.10;14.20
11599;DHT22;5855;48.840;9.188;2023-03-01T15:53:59;24.60;15.00
11599;DHT22;5855;48.840;9.188;2023-03-01T15:56:26;24.10;15.30
11599;DHT22;5855;48.840;9.188;2023-03-01T15:58:57;23.40;15.50
11599;DHT22;5855;48.840;9.188;2023-03-01T16:01:24;22.70;16.10
11599;DHT22;5855;48.840;9.188;2023-03-01T16:03:51;22.10;16.60
11599;DHT22;5855;48.840;9.188;2023-03-01T16:06:19;21.70;17.00
11599;DHT22;5855;48.840;9.188;2023-03-01T16:08:46;21.30;17.50
11599;DHT22;5855;48.840;9.188;2023-03-01T16:11:20;20.70;17.60
11599;DHT22;5855;48.840;9.188;2023-03-01T16:13:47;20.30;18.00
11599;DHT22;5855;48.840;9.188;2023-03-01T16:16:16;19.80;18.40
11599;DHT22;5855;48.840;9.188;2023-03-01T16:18:44;19.40;19.00
11599;DHT22;5855;48.840;9.188;2023-03-01T16:21:14;18.80;19.50
11599;DHT22;5855;48.840;9.188;2023-03-01T16:23:42;18.40;19.90
11599;DHT22;5855;48.840;9.188;2023-03-01T16:26:10;17.80;20.60